createdAt,value
2023-04-17T00:01:58.051Z,13.50
2023-04-17T00:04:44.191Z,13.20
2023-04-17T00:07:30.538Z,13.30
2023-04-17T00:10:16.660Z,13.50
2023-04-17T00:13:03.761Z,13.30
2023-04-17T00:15:49.658Z,13.30
2023-04-17T00:18:35.132Z,13.00
2023-04-17T00:21:20.656Z,13.20
2023-04-17T00:24:06.670Z,13.20
2023-04-17T00:26:52.225Z,13.10
2023-04-17T00:29:39.162Z,12.80
2023-04-17T00:32:24.676Z,12.40
2023-04-17T00:35:10.543Z,12.20
2023-04-17T00:37:56.346Z,12.30
2023-04-17T00:40:42.780Z,12.20
2023-04-17T00:43:28.458Z,12.10
2023-04-17T00:46:15.675Z,12.10
2023-04-17T00:49:01.738Z,12.30
2023-04-17T00:51:47.909Z,11.60
2023-04-17T00:54:33.547Z,12.00
2023-04-17T00:57:19.399Z,12.50
2023-04-17T01:00:09.391Z,12.50
2023-04-17T01:02:58.377Z,12.30
2023-04-17T01:05:48.270Z,12.10
2023-04-17T01:08:41.351Z,11.80
2023-04-17T01:11:27.098Z,11.90
2023-04-17T01:14:14.459Z,12.00
2023-04-17T01:17:00.509Z,11.70
2023-04-17T01:19:48.550Z,11.70
2023-04-17T01:22:34.703Z,11.90
2023-04-17T01:25:22.041Z,12.30
2023-04-17T01:28:07.876Z,12.40
2023-04-17T01:30:53.501Z,12.60
2023-04-17T01:33:39.470Z,12.60
2023-04-17T01:36:25.295Z,12.00
2023-04-17T01:39:11.659Z,12.30
2023-04-17T01:41:58.923Z,11.90
2023-04-17T01:44:44.604Z,12.10
2023-04-17T01:47:30.460Z,11.80
2023-04-17T01:50:16.573Z,12.10
2023-04-17T01:53:02.215Z,12.10
2023-04-17T01:55:47.838Z,12.30
2023-04-17T01:58:34.716Z,11.60
2023-04-17T02:01:20.660Z,11.70
2023-04-17T02:04:06.855Z,11.90
2023-04-17T02:06:53.205Z,12.20
2023-04-17T02:09:38.727Z,11.90
2023-04-17T02:12:26.463Z,12.20
2023-04-17T02:15:13.733Z,12.40
2023-04-17T02:17:59.418Z,12.30
2023-04-17T02:20:45.460Z,12.40
2023-04-17T02:23:31.056Z,12.80
2023-04-17T02:26:16.846Z,12.60
2023-04-17T02:29:03.306Z,12.70
2023-04-17T02:31:51.283Z,12.30
2023-04-17T02:34:37.049Z,11.80
2023-04-17T02:37:23.076Z,11.80
2023-04-17T02:40:10.101Z,12.00
2023-04-17T02:42:56.866Z,12.10
2023-04-17T02:45:42.274Z,11.90
2023-04-17T02:48:29.584Z,11.60
2023-04-17T02:51:15.409Z,11.50
2023-04-17T02:54:01.507Z,11.40
2023-04-17T02:56:47.786Z,11.50
2023-04-17T02:59:33.234Z,11.30
2023-04-17T03:02:22.965Z,11.60
2023-04-17T03:05:11.635Z,12.10
2023-04-17T03:07:58.307Z,12.00
2023-04-17T03:10:46.133Z,11.80
2023-04-17T03:13:34.808Z,11.40
2023-04-17T03:16:20.524Z,11.60
2023-04-17T03:19:06.527Z,11.70
2023-04-17T03:21:53.441Z,11.90
2023-04-17T03:24:39.071Z,11.80
2023-04-17T03:27:25.206Z,11.50
2023-04-17T03:30:13.493Z,11.50
2023-04-17T03:33:02.984Z,11.70
2023-04-17T03:35:49.991Z,11.50
2023-04-17T03:38:38.506Z,11.50
2023-04-17T03:41:26.406Z,11.70
2023-04-17T03:44:13.008Z,11.60
2023-04-17T03:46:58.792Z,11.40
2023-04-17T03:49:44.788Z,11.40
2023-04-17T03:52:32.014Z,11.80
2023-04-17T03:55:20.084Z,12.10
2023-04-17T03:58:07.426Z,11.60
2023-04-17T04:00:55.602Z,11.60
2023-04-17T04:03:45.642Z,11.30
2023-04-17T04:06:31.890Z,11.10
2023-04-17T04:09:18.239Z,10.90
2023-04-17T04:12:05.507Z,11.30
2023-04-17T04:14:57.543Z,11.40
2023-04-17T04:17:44.567Z,11.70
2023-04-17T04:20:30.468Z,11.60
2023-04-17T04:23:30.552Z,11.60
2023-04-17T04:26:17.047Z,11.50
2023-04-17T04:29:11.771Z,12.00
2023-04-17T04:32:09.642Z,12.00
2023-04-17T04:35:01.875Z,11.90
2023-04-17T04:37:49.095Z,12.00
2023-04-17T04:40:38.263Z,12.20
2023-04-17T04:43:25.879Z,11.80
2023-04-17T04:46:14.410Z,11.60
2023-04-17T04:49:04.548Z,11.40
2023-04-17T04:51:50.703Z,11.50
2023-04-17T04:54:36.531Z,11.40
2023-04-17T04:57:23.630Z,11.40
2023-04-17T05:00:14.371Z,11.30
2023-04-17T05:03:07.720Z,11.40
2023-04-17T05:05:53.596Z,11.50
2023-04-17T05:08:43.154Z,11.40
2023-04-17T05:11:30.928Z,11.40
2023-04-17T05:14:17.314Z,11.60
2023-04-17T05:17:03.322Z,11.70
2023-04-17T05:19:50.584Z,11.60
2023-04-17T05:22:39.986Z,11.50
2023-04-17T05:25:29.390Z,11.60
2023-04-17T05:28:17.290Z,11.50
2023-04-17T05:31:03.599Z,11.60
2023-04-17T05:33:57.299Z,11.80
2023-04-17T05:36:45.379Z,11.60
2023-04-17T05:39:31.269Z,11.30
2023-04-17T05:42:17.250Z,11.30
2023-04-17T05:45:04.895Z,11.50
2023-04-17T05:47:51.606Z,11.50
2023-04-17T05:50:39.810Z,11.50
2023-04-17T05:53:30.373Z,11.40
2023-04-17T05:56:17.210Z,11.30
2023-04-17T05:59:03.115Z,11.40
2023-04-17T06:01:49.112Z,11.50
2023-04-17T06:04:39.149Z,11.30
2023-04-17T06:07:25.253Z,11.40
2023-04-17T06:10:12.835Z,11.30
2023-04-17T06:13:00.531Z,11.30
2023-04-17T06:15:47.349Z,11.80
2023-04-17T06:18:33.920Z,11.90
2023-04-17T06:21:19.849Z,12.00
2023-04-17T06:24:06.045Z,11.90
2023-04-17T06:26:52.947Z,11.80
2023-04-17T06:29:38.856Z,11.60
2023-04-17T06:32:24.948Z,11.80
2023-04-17T06:35:11.766Z,12.10
2023-04-17T06:38:09.082Z,12.40
2023-04-17T06:40:54.896Z,12.30
2023-04-17T06:43:42.110Z,12.20
2023-04-17T06:46:34.205Z,12.20
2023-04-17T06:49:23.194Z,12.10
2023-04-17T06:52:09.379Z,12.10
2023-04-17T06:54:56.020Z,11.80
2023-04-17T06:57:41.762Z,11.70
2023-04-17T07:00:29.182Z,11.90
2023-04-17T07:03:16.679Z,12.30
2023-04-17T07:06:02.624Z,12.20
2023-04-17T07:08:48.668Z,12.20
2023-04-17T07:11:34.539Z,12.30
2023-04-17T07:14:20.610Z,12.30
2023-04-17T07:17:09.084Z,12.10
2023-04-17T07:19:55.076Z,12.20
2023-04-17T07:22:41.488Z,11.90
2023-04-17T07:25:27.543Z,12.40
2023-04-17T07:28:13.146Z,12.10
2023-04-17T07:30:58.700Z,11.90
2023-04-17T07:33:45.723Z,11.70
2023-04-17T07:36:31.735Z,12.00
2023-04-17T07:39:17.404Z,12.30
2023-04-17T07:42:06.420Z,12.70
2023-04-17T07:44:51.977Z,13.00
2023-04-17T07:47:37.645Z,13.10
2023-04-17T07:50:25.123Z,12.90
2023-04-17T07:53:11.309Z,12.90
2023-04-17T07:55:58.266Z,13.20
2023-04-17T07:58:45.136Z,14.00
2023-04-17T08:01:32.023Z,14.10
2023-04-17T08:04:17.957Z,14.20
2023-04-17T08:07:05.180Z,14.50
2023-04-17T08:09:51.209Z,14.30
2023-04-17T08:12:37.148Z,14.80
2023-04-17T08:15:23.057Z,14.60
2023-04-17T08:18:10.556Z,14.80
2023-04-17T08:20:56.554Z,14.90
2023-04-17T08:23:43.489Z,15.10
2023-04-17T08:26:29.136Z,15.10
2023-04-17T08:29:14.984Z,15.50
2023-04-17T08:32:13.966Z,15.90
2023-04-17T08:35:00.937Z,16.10
2023-04-17T08:37:47.024Z,16.90
2023-04-17T08:40:33.930Z,17.30
2023-04-17T08:43:21.178Z,17.20
2023-04-17T08:46:07.746Z,17.40
2023-04-17T08:48:53.721Z,17.20
2023-04-17T08:51:39.376Z,17.80
2023-04-17T08:54:25.429Z,17.90
2023-04-17T08:57:12.475Z,18.00
2023-04-17T08:59:58.082Z,18.20
2023-04-17T09:03:02.861Z,17.90
2023-04-17T09:05:49.081Z,17.30
2023-04-17T09:08:35.311Z,17.30
2023-04-17T09:11:21.330Z,17.20
2023-04-17T09:14:31.534Z,17.40
2023-04-17T09:17:18.631Z,17.60
2023-04-17T09:20:07.479Z,17.50
2023-04-17T09:23:02.057Z,17.50
2023-04-17T09:26:06.659Z,17.70
2023-04-17T09:29:08.910Z,16.90
2023-04-17T09:31:56.053Z,17.20
2023-04-17T09:34:42.590Z,17.60
2023-04-17T09:37:51.232Z,17.50
2023-04-17T09:40:38.803Z,18.20
2023-04-17T09:43:24.257Z,19.60
2023-04-17T09:46:10.321Z,21.10
2023-04-17T09:48:58.939Z,21.90
2023-04-17T09:51:45.816Z,23.30
2023-04-17T09:54:31.985Z,23.90
2023-04-17T09:57:18.764Z,24.40
2023-04-17T10:00:10.563Z,23.30
2023-04-17T10:02:57.987Z,23.60
2023-04-17T10:05:45.913Z,24.10
2023-04-17T10:08:32.299Z,22.50
2023-04-17T10:11:18.852Z,22.80
2023-04-17T10:14:11.328Z,22.70
2023-04-17T10:16:57.580Z,21.60
2023-04-17T10:19:43.368Z,22.00
2023-04-17T10:22:31.354Z,21.00
2023-04-17T10:25:18.835Z,20.00
2023-04-17T10:28:04.937Z,19.40
2023-04-17T10:30:54.816Z,20.00
2023-04-17T10:33:49.668Z,21.10
2023-04-17T10:36:49.527Z,20.40
2023-04-17T10:40:01.656Z,19.90
2023-04-17T10:43:02.339Z,20.70
2023-04-17T10:46:02.089Z,20.50
2023-04-17T10:48:50.604Z,20.40
2023-04-17T10:51:41.480Z,19.20
2023-04-17T10:54:27.266Z,19.20
2023-04-17T10:57:14.601Z,18.70
2023-04-17T11:00:12.105Z,19.10
2023-04-17T11:03:00.648Z,20.20
2023-04-17T11:05:47.290Z,20.00
2023-04-17T11:08:32.842Z,20.50
2023-04-17T11:11:23.622Z,20.80
2023-04-17T11:14:23.591Z,20.30
2023-04-17T11:17:09.714Z,20.40
2023-04-17T11:19:56.204Z,20.40
2023-04-17T11:22:43.585Z,19.80
2023-04-17T11:25:31.631Z,20.00
2023-04-17T11:28:17.505Z,21.20
2023-04-17T11:31:04.466Z,21.60
2023-04-17T11:33:50.026Z,22.00
2023-04-17T11:36:36.366Z,21.70
2023-04-17T11:39:23.527Z,21.80
2023-04-17T11:42:13.001Z,21.50
2023-04-17T11:45:04.880Z,20.50
2023-04-17T11:47:52.600Z,19.80
2023-04-17T11:50:39.050Z,20.00
2023-04-17T11:53:28.255Z,20.50
2023-04-17T11:56:17.138Z,21.30
2023-04-17T11:59:05.141Z,21.60
2023-04-17T12:01:53.128Z,21.50
2023-04-17T12:04:41.009Z,20.00
2023-04-17T12:07:27.117Z,20.20
2023-04-17T12:10:12.798Z,20.10
2023-04-17T12:12:58.697Z,19.20
2023-04-17T12:15:44.656Z,19.30
2023-04-17T12:18:30.621Z,20.10
2023-04-17T12:21:20.382Z,19.40
2023-04-17T12:24:05.929Z,19.80
2023-04-17T12:26:52.452Z,20.20
2023-04-17T12:32:28.741Z,22.70
2023-04-17T12:35:14.855Z,21.10
2023-04-17T12:38:02.261Z,19.80
2023-04-17T12:40:47.857Z,19.80
2023-04-17T12:43:33.607Z,20.20
2023-04-17T12:46:19.464Z,21.60
2023-04-17T12:49:05.288Z,21.40
2023-04-17T12:51:51.481Z,22.10
2023-04-17T12:54:40.728Z,22.60
2023-04-17T12:57:26.985Z,20.40
2023-04-17T13:00:13.993Z,19.90
2023-04-17T13:02:59.810Z,18.80
2023-04-17T13:05:45.931Z,19.20
2023-04-17T13:08:32.148Z,19.00
2023-04-17T13:11:19.314Z,20.20
2023-04-17T13:14:04.895Z,21.00
2023-04-17T13:16:51.027Z,21.30
2023-04-17T13:19:36.869Z,20.40
2023-04-17T13:22:22.541Z,20.50
2023-04-17T13:25:09.277Z,20.10
2023-04-17T13:27:56.669Z,20.40
2023-04-17T13:30:42.247Z,20.90
2023-04-17T13:33:28.024Z,22.00
2023-04-17T13:36:13.950Z,21.30
2023-04-17T13:38:59.610Z,21.70
2023-04-17T13:41:45.666Z,20.00
2023-04-17T13:44:33.042Z,19.90
2023-04-17T13:47:19.065Z,20.50
2023-04-17T13:50:06.348Z,20.10
2023-04-17T13:52:51.914Z,19.90
2023-04-17T13:55:37.664Z,19.30
2023-04-17T13:58:23.383Z,19.20
2023-04-17T14:01:12.564Z,19.50
2023-04-17T14:04:01.180Z,19.70
2023-04-17T14:06:49.658Z,20.10
2023-04-17T14:09:35.497Z,19.60
2023-04-17T14:12:21.848Z,19.60
2023-04-17T14:15:08.914Z,19.70
2023-04-17T14:17:57.082Z,19.60
2023-04-17T14:20:42.739Z,19.80
2023-04-17T14:23:28.576Z,19.80
2023-04-17T14:26:14.317Z,19.80
2023-04-17T14:29:00.167Z,20.00
2023-04-17T14:31:46.059Z,20.50
2023-04-17T14:34:33.457Z,20.40
2023-04-17T14:37:19.997Z,20.60
2023-04-17T14:40:07.393Z,20.90
2023-04-17T14:42:54.828Z,21.20
2023-04-17T14:45:40.742Z,21.60
2023-04-17T14:48:26.725Z,22.20
2023-04-17T14:51:15.241Z,20.60
2023-04-17T14:54:01.082Z,19.00
2023-04-17T14:56:46.965Z,18.20
2023-04-17T14:59:32.450Z,18.80
2023-04-17T15:02:18.072Z,18.80
2023-04-17T15:05:05.204Z,18.70
2023-04-17T15:07:53.305Z,19.10
2023-04-17T15:10:50.601Z,19.50
2023-04-17T15:13:40.649Z,18.60
2023-04-17T15:16:26.958Z,18.10
2023-04-17T15:19:13.278Z,17.60
2023-04-17T15:22:02.100Z,17.50
2023-04-17T15:24:49.614Z,18.40
2023-04-17T15:27:35.323Z,18.20
2023-04-17T15:30:21.271Z,18.80
2023-04-17T15:33:08.512Z,19.10
2023-04-17T15:35:58.046Z,18.90
2023-04-17T15:38:44.269Z,18.80
2023-04-17T15:41:31.399Z,18.60
2023-04-17T15:44:17.152Z,18.90
2023-04-17T15:47:02.964Z,19.10
2023-04-17T15:49:48.512Z,19.30
2023-04-17T15:52:34.715Z,19.30
2023-04-17T15:55:20.745Z,18.90
2023-04-17T15:58:08.582Z,18.10
2023-04-17T16:00:54.482Z,18.60
2023-04-17T16:03:43.633Z,19.20
2023-04-17T16:06:29.593Z,19.10
2023-04-17T16:09:20.083Z,20.10
2023-04-17T16:12:08.779Z,20.50
2023-04-17T16:14:56.261Z,20.90
2023-04-17T16:17:43.186Z,21.20
2023-04-17T16:20:29.222Z,20.60
2023-04-17T16:23:15.483Z,20.30
2023-04-17T16:26:01.573Z,19.80
2023-04-17T16:28:47.595Z,19.70
2023-04-17T16:31:34.869Z,19.50
2023-04-17T16:34:23.781Z,19.30
2023-04-17T16:37:09.246Z,19.20
2023-04-17T16:39:55.017Z,18.90
2023-04-17T16:42:41.302Z,18.60
2023-04-17T16:45:27.428Z,18.30
2023-04-17T16:48:14.713Z,17.70
2023-04-17T16:51:04.659Z,17.40
2023-04-17T16:53:50.572Z,17.20
2023-04-17T16:56:36.268Z,16.80
2023-04-17T16:59:22.031Z,17.00
2023-04-17T17:02:08.060Z,17.30
2023-04-17T17:04:55.480Z,17.30
2023-04-17T17:07:41.151Z,17.40
2023-04-17T17:10:26.984Z,17.90
2023-04-17T17:13:12.964Z,17.50
2023-04-17T17:15:58.535Z,17.70
2023-04-17T17:18:45.044Z,18.10
2023-04-17T17:21:32.777Z,18.30
2023-04-17T17:24:18.306Z,18.20
2023-04-17T17:27:05.134Z,18.50
2023-04-17T17:29:54.804Z,18.60
2023-04-17T17:32:40.544Z,18.80
2023-04-17T17:35:26.873Z,19.20
2023-04-17T17:38:14.858Z,19.20
2023-04-17T17:41:01.430Z,18.80
2023-04-17T17:43:47.204Z,18.40
2023-04-17T17:46:35.857Z,18.30
2023-04-17T17:49:21.682Z,18.40
2023-04-17T17:52:07.786Z,18.10
2023-04-17T17:54:54.715Z,18.30
2023-04-17T17:57:48.842Z,18.70
2023-04-17T18:00:35.297Z,18.90
2023-04-17T18:03:21.386Z,18.90
2023-04-17T18:06:07.235Z,19.10
2023-04-17T18:08:53.150Z,19.00
2023-04-17T18:11:40.291Z,18.80
2023-04-17T18:14:26.499Z,18.60
2023-04-17T18:17:11.950Z,18.10
2023-04-17T18:19:57.916Z,18.10
2023-04-17T18:22:43.785Z,18.00
2023-04-17T18:25:29.450Z,17.90
2023-04-17T18:28:16.388Z,17.70
2023-04-17T18:31:02.181Z,17.70
2023-04-17T18:33:48.035Z,17.60
2023-04-17T18:36:33.927Z,17.60
2023-04-17T18:39:20.084Z,17.40
2023-04-17T18:42:05.960Z,17.30
2023-04-17T18:44:53.283Z,17.30
2023-04-17T18:47:39.076Z,17.00
2023-04-17T18:50:26.922Z,16.90
2023-04-17T18:53:12.773Z,16.90
2023-04-17T18:55:58.345Z,16.70
2023-04-17T18:58:44.269Z,16.70
2023-04-17T19:01:31.180Z,16.60
2023-04-17T19:04:16.642Z,16.50
2023-04-17T19:07:02.826Z,16.60
2023-04-17T19:09:48.720Z,16.60
2023-04-17T19:12:36.035Z,16.80
2023-04-17T19:15:21.968Z,16.40
2023-04-17T19:18:10.003Z,16.30
2023-04-17T19:20:55.910Z,16.30
2023-04-17T19:23:41.370Z,16.00
2023-04-17T19:26:27.030Z,16.00
2023-04-17T19:29:13.508Z,15.60
2023-04-17T19:31:59.839Z,15.40
2023-04-17T19:34:47.040Z,14.90
2023-04-17T19:37:33.481Z,15.10
2023-04-17T19:40:25.177Z,15.20
2023-04-17T19:43:11.813Z,15.20
2023-04-17T19:45:57.495Z,15.00
2023-04-17T19:48:44.883Z,14.90
2023-04-17T19:51:32.324Z,14.70
2023-04-17T19:54:17.903Z,14.70
2023-04-17T19:57:03.495Z,14.40
2023-04-17T19:59:49.251Z,14.60
2023-04-17T20:02:35.038Z,14.80
2023-04-17T20:05:21.365Z,14.80
2023-04-17T20:08:09.360Z,15.10
2023-04-17T20:10:54.986Z,15.10
2023-04-17T20:13:40.892Z,15.00
2023-04-17T20:16:27.120Z,14.80
2023-04-17T20:19:13.436Z,14.60
2023-04-17T20:21:59.572Z,14.50
2023-04-17T20:24:50.603Z,14.70
2023-04-17T20:27:36.244Z,14.60
2023-04-17T20:30:22.046Z,14.70
2023-04-17T20:33:07.769Z,14.90
2023-04-17T20:35:53.448Z,14.80
2023-04-17T20:38:39.595Z,14.40
2023-04-17T20:41:26.444Z,14.40
2023-04-17T20:44:12.450Z,14.50
2023-04-17T20:46:58.100Z,14.30
2023-04-17T20:49:43.415Z,14.20
2023-04-17T20:52:29.730Z,14.30
2023-04-17T20:55:18.197Z,14.30
2023-04-17T20:58:05.300Z,13.90
2023-04-17T21:01:00.669Z,14.10
2023-04-17T21:03:47.639Z,14.00
2023-04-17T21:06:33.535Z,13.60
2023-04-17T21:09:19.046Z,13.70
2023-04-17T21:12:05.437Z,13.70
2023-04-17T21:14:52.441Z,13.80
2023-04-17T21:17:38.240Z,13.50
2023-04-17T21:20:23.816Z,13.60
2023-04-17T21:23:09.451Z,13.50
2023-04-17T21:25:55.551Z,13.70
2023-04-17T21:28:41.080Z,13.50
2023-04-17T21:31:28.104Z,13.60
2023-04-17T21:34:14.099Z,13.30
2023-04-17T21:37:02.183Z,13.30
2023-04-17T21:39:48.380Z,13.50
2023-04-17T21:42:34.301Z,12.90
2023-04-17T21:45:20.128Z,13.20
2023-04-17T21:48:07.096Z,13.40
2023-04-17T21:50:55.570Z,13.30
2023-04-17T21:53:43.904Z,13.00
2023-04-17T21:56:29.299Z,13.00
2023-04-17T21:59:14.926Z,13.10
2023-04-17T22:02:00.964Z,13.10
2023-04-17T22:04:48.409Z,13.30
2023-04-17T22:07:40.676Z,13.30
2023-04-17T22:10:26.932Z,13.40
2023-04-17T22:13:12.565Z,12.90
2023-04-17T22:15:58.646Z,12.60
2023-04-17T22:18:45.484Z,12.60
2023-04-17T22:21:32.554Z,12.40
2023-04-17T22:24:18.182Z,12.40
2023-04-17T22:27:04.113Z,12.50
2023-04-17T22:29:49.925Z,12.50
2023-04-17T22:32:36.129Z,12.60
2023-04-17T22:35:22.417Z,12.70
2023-04-17T22:38:09.292Z,12.80
2023-04-17T22:40:55.742Z,12.60
2023-04-17T22:43:41.465Z,12.50
2023-04-17T22:46:27.119Z,12.60
2023-04-17T22:49:14.250Z,12.50
2023-04-17T22:52:00.181Z,12.50
2023-04-17T22:54:46.935Z,12.60
2023-04-17T22:57:32.935Z,12.50
2023-04-17T23:00:20.129Z,12.40
2023-04-17T23:03:06.056Z,12.30
2023-04-17T23:05:53.380Z,12.40
2023-04-17T23:08:39.246Z,12.30
2023-04-17T23:11:26.127Z,12.30
2023-04-17T23:14:12.312Z,12.40
2023-04-17T23:16:58.043Z,12.20
2023-04-17T23:19:43.527Z,12.10
2023-04-17T23:22:29.396Z,12.10
2023-04-17T23:25:15.235Z,12.00
2023-04-17T23:28:02.318Z,12.00
2023-04-17T23:30:47.906Z,11.90
2023-04-17T23:33:33.868Z,11.90
2023-04-17T23:36:19.678Z,11.80
2023-04-17T23:39:05.799Z,11.50
2023-04-17T23:41:51.229Z,11.50
2023-04-17T23:44:38.104Z,11.50
2023-04-17T23:47:24.237Z,11.10
2023-04-17T23:50:10.928Z,11.00
2023-04-17T23:52:59.674Z,10.70
2023-04-17T23:55:45.850Z,10.90
2023-04-17T23:58:31.345Z,11.00
